Time;durP1;ratioP1;P1;durP2;ratioP2;P2;SDS_P1;SDS_P2;PMS_P1;PMS_P2;Temp;Humidity;BMP_temperature;BMP_pressure;BME280_temperature;BME280_humidity;BME280_pressure;Samples;Min_cycle;Max_cycle;Signal;HPM_P1;HPM_P2
2022/07/01 00:02:18;;;;;;;11.85;3.97;;;14.00;99.90;;;;;;5004776;28;20094;-92
2022/07/01 00:04:43;;;;;;;6.25;2.80;;;14.00;99.90;;;;;;5021671;28;20044;-91
2022/07/01 00:07:11;;;;;;;13.00;3.63;;;14.10;99.90;;;;;;5021177;28;20040;-91
2022/07/01 00:09:37;;;;;;;11.18;3.15;;;14.10;99.90;;;;;;5016617;28;20048;-94
2022/07/01 00:12:03;;;;;;;14.25;3.70;;;14.10;99.90;;;;;;5027212;28;20037;-93
2022/07/01 00:14:29;;;;;;;17.15;3.55;;;14.10;99.90;;;;;;5037746;28;20087;-91
2022/07/01 00:16:55;;;;;;;6.55;2.65;;;14.10;99.90;;;;;;5039476;28;20047;-94
2022/07/01 00:19:20;;;;;;;6.82;3.95;;;14.10;99.90;;;;;;5038008;28;20037;-91
2022/07/01 00:21:46;;;;;;;8.65;3.42;;;14.10;99.90;;;;;;5035886;28;20123;-92
2022/07/01 00:24:12;;;;;;;10.10;3.55;;;14.10;99.90;;;;;;5026029;28;20072;-91
2022/07/01 00:26:37;;;;;;;8.82;3.90;;;14.10;99.90;;;;;;5014412;28;20197;-93
2022/07/01 00:29:03;;;;;;;6.63;3.55;;;14.10;99.90;;;;;;5018120;28;20431;-90
2022/07/01 00:31:29;;;;;;;9.18;3.33;;;14.20;99.90;;;;;;5033420;28;20040;-93
2022/07/01 00:33:54;;;;;;;10.32;3.55;;;14.20;99.90;;;;;;5035460;28;20167;-92
2022/07/01 00:36:21;;;;;;;8.73;3.90;;;14.20;99.90;;;;;;5018280;28;20040;-91
2022/07/01 00:38:46;;;;;;;8.90;4.20;;;14.20;99.90;;;;;;5054864;28;20048;-91
2022/07/01 00:41:12;;;;;;;13.10;5.18;;;14.20;99.90;;;;;;5019545;28;20037;-92
2022/07/01 00:43:38;;;;;;;7.53;3.88;;;14.20;99.90;;;;;;5036193;28;20142;-91
2022/07/01 00:46:04;;;;;;;10.82;4.18;;;14.20;99.90;;;;;;5030693;28;20405;-90
2022/07/01 00:48:33;;;;;;;12.77;4.80;;;14.20;99.90;;;;;;5030026;28;20065;-89
2022/07/01 00:50:59;;;;;;;10.07;4.68;;;14.20;99.90;;;;;;5064065;28;20067;-92
2022/07/01 00:53:25;;;;;;;6.43;3.75;;;14.20;99.90;;;;;;5025564;28;20041;-92
2022/07/01 00:55:51;;;;;;;9.40;4.53;;;14.30;99.90;;;;;;5048760;28;20045;-91
2022/07/01 00:58:17;;;;;;;6.95;4.38;;;14.30;99.90;;;;;;5031717;28;20048;-90
2022/07/01 01:00:42;;;;;;;5.22;3.47;;;14.30;99.90;;;;;;5020064;28;20032;-90
2022/07/01 01:03:11;;;;;;;11.13;4.60;;;14.30;99.90;;;;;;5009301;28;20049;-89
2022/07/01 01:05:41;;;;;;;4.03;2.30;;;14.30;99.90;;;;;;5032388;28;20052;-89
2022/07/01 01:08:10;;;;;;;11.82;2.60;;;14.20;99.90;;;;;;5043092;28;20920;-91
2022/07/01 01:10:37;;;;;;;4.00;1.70;;;14.20;99.90;;;;;;5050970;28;20057;-92
2022/07/01 01:13:03;;;;;;;5.22;2.00;;;14.20;99.90;;;;;;5040513;28;20045;-92
2022/07/01 01:15:30;;;;;;;3.50;1.67;;;14.10;99.90;;;;;;5031039;28;20037;-93
2022/07/01 01:17:56;;;;;;;5.95;2.00;;;14.20;99.90;;;;;;5044530;28;20123;-90
2022/07/01 01:20:22;;;;;;;3.80;2.10;;;14.10;99.90;;;;;;5041256;28;20269;-92
2022/07/01 01:22:48;;;;;;;5.30;1.75;;;14.10;99.90;;;;;;5049177;28;20102;-92
2022/07/01 01:25:14;;;;;;;2.67;1.77;;;14.10;99.90;;;;;;5037385;28;20048;-92
2022/07/01 01:27:41;;;;;;;3.08;2.20;;;14.00;99.90;;;;;;5054776;28;20040;-90
2022/07/01 01:30:08;;;;;;;4.72;1.77;;;14.00;99.90;;;;;;5055855;28;20032;-91
2022/07/01 01:32:34;;;;;;;3.50;1.70;;;14.00;99.90;;;;;;5039709;28;20044;-91
2022/07/01 01:35:01;;;;;;;1.83;1.48;;;13.90;99.90;;;;;;5037609;28;20041;-92
2022/07/01 01:37:29;;;;;;;5.22;1.70;;;13.90;99.90;;;;;;5032901;28;20391;-92
2022/07/01 01:39:55;;;;;;;6.82;2.33;;;13.90;99.90;;;;;;5022334;28;20055;-92
2022/07/01 01:42:21;;;;;;;3.95;1.70;;;13.90;99.90;;;;;;5048764;28;20041;-93
2022/07/01 01:44:47;;;;;;;2.97;1.98;;;13.90;99.90;;;;;;5031813;28;20033;-94
2022/07/01 01:47:13;;;;;;;2.72;1.80;;;13.90;99.90;;;;;;5026562;28;20041;-92
2022/07/01 01:49:39;;;;;;;2.08;1.80;;;13.90;99.90;;;;;;5042155;28;20070;-91
2022/07/01 01:52:06;;;;;;;5.10;2.40;;;13.90;99.90;;;;;;5014832;28;20057;-91
2022/07/01 01:54:32;;;;;;;4.47;1.80;;;13.90;99.90;;;;;;5036749;28;20047;-92
2022/07/01 01:56:58;;;;;;;5.38;2.95;;;13.90;99.90;;;;;;5040547;28;20433;-92
2022/07/01 01:59:24;;;;;;;3.00;2.05;;;13.90;99.90;;;;;;5055992;28;20041;-91
2022/07/01 02:01:50;;;;;;;11.35;3.13;;;13.90;99.90;;;;;;5030157;28;20040;-92
2022/07/01 02:04:15;;;;;;;7.05;3.33;;;13.90;99.90;;;;;;5040439;28;20040;-93
2022/07/01 02:06:41;;;;;;;5.03;2.47;;;13.90;99.90;;;;;;5056505;28;20127;-92
2022/07/01 02:09:08;;;;;;;4.80;2.90;;;13.90;99.90;;;;;;5038878;28;20084;-93
2022/07/01 02:11:34;;;;;;;7.38;4.57;;;13.90;99.90;;;;;;5052523;28;20055;-92
2022/07/01 02:14:00;;;;;;;5.60;3.33;;;13.90;99.90;;;;;;5022550;28;20040;-93
2022/07/01 02:16:26;;;;;;;5.07;3.20;;;13.90;99.90;;;;;;5017782;28;20497;-91
2022/07/01 02:18:52;;;;;;;5.03;3.28;;;13.90;99.90;;;;;;5052945;28;20037;-93
2022/07/01 02:21:18;;;;;;;5.30;3.78;;;13.90;99.90;;;;;;5003595;28;20513;-94
2022/07/01 02:23:44;;;;;;;5.05;3.30;;;13.90;99.90;;;;;;5049864;28;20127;-91
2022/07/01 02:26:09;;;;;;;10.13;3.88;;;13.90;99.90;;;;;;5040196;28;20067;-92
2022/07/01 02:28:35;;;;;;;8.35;5.13;;;13.90;99.90;;;;;;5058134;28;20028;-93
2022/07/01 02:31:02;;;;;;;9.05;5.18;;;13.90;99.90;;;;;;5056497;28;20037;-93
2022/07/01 02:33:28;;;;;;;6.75;4.38;;;13.90;99.90;;;;;;5040515;28;20044;-93
2022/07/01 02:35:54;;;;;;;8.70;5.00;;;14.00;99.90;;;;;;5057964;28;20131;-89
2022/07/01 02:38:19;;;;;;;7.45;4.43;;;13.90;99.90;;;;;;5039799;28;20136;-93
2022/07/01 02:40:45;;;;;;;10.57;5.18;;;13.90;99.90;;;;;;5038200;28;20036;-90
2022/07/01 02:43:11;;;;;;;8.27;5.63;;;13.90;99.90;;;;;;5022662;28;20041;-93
2022/07/01 02:45:37;;;;;;;7.47;4.93;;;13.90;99.90;;;;;;5057177;28;20098;-93
2022/07/01 02:48:03;;;;;;;6.50;4.47;;;13.90;99.90;;;;;;5039398;28;20044;-94
2022/07/01 02:50:29;;;;;;;8.27;4.90;;;13.90;99.90;;;;;;5053500;28;20087;-91
2022/07/01 02:52:54;;;;;;;8.80;4.80;;;13.90;99.90;;;;;;5046180;28;20049;-92
2022/07/01 02:55:20;;;;;;;9.05;4.95;;;13.80;99.90;;;;;;4998054;28;20457;-93
2022/07/01 02:57:49;;;;;;;7.43;4.15;;;13.80;99.90;;;;;;5046116;28;20040;-92
2022/07/01 03:00:15;;;;;;;9.38;4.80;;;13.80;99.90;;;;;;5051108;28;20070;-93
2022/07/01 03:02:41;;;;;;;9.38;4.55;;;13.80;99.90;;;;;;5021429;28;20477;-92
2022/07/01 03:05:08;;;;;;;6.05;4.60;;;13.80;99.90;;;;;;5030474;28;20040;-92
2022/07/01 03:07:36;;;;;;;8.68;4.68;;;13.80;99.90;;;;;;5019780;28;20056;-92
2022/07/01 03:10:03;;;;;;;7.47;4.78;;;13.80;99.90;;;;;;5030329;28;20040;-92
2022/07/01 03:12:29;;;;;;;7.97;5.05;;;13.70;99.90;;;;;;5036676;28;20095;-91
2022/07/01 03:15:16;;;;;;;10.00;5.28;;;13.70;99.90;;;;;;5051170;28;20072;-90
2022/07/01 03:17:44;;;;;;;10.55;5.55;;;13.70;99.90;;;;;;5049919;28;20508;-94
2022/07/01 03:20:13;;;;;;;10.23;5.70;;;13.70;99.90;;;;;;5031622;28;20094;-92
2022/07/01 03:22:39;;;;;;;9.70;6.03;;;13.70;99.90;;;;;;5026036;28;20095;-90
2022/07/01 03:25:06;;;;;;;10.10;6.65;;;13.60;99.90;;;;;;5019941;28;20036;-93
2022/07/01 03:27:32;;;;;;;10.85;7.25;;;13.70;99.90;;;;;;5020466;28;20080;-92
2022/07/01 03:29:58;;;;;;;12.40;7.05;;;13.70;99.90;;;;;;5030567;28;20054;-93
2022/07/01 03:32:24;;;;;;;11.73;6.22;;;13.60;99.90;;;;;;5035986;28;20048;-93
2022/07/01 03:34:51;;;;;;;9.07;6.88;;;13.70;99.90;;;;;;5024848;28;20313;-92
2022/07/01 03:37:18;;;;;;;17.83;8.32;;;13.70;99.90;;;;;;5030752;28;20218;-90
2022/07/01 03:39:44;;;;;;;17.00;9.40;;;13.60;99.90;;;;;;5024785;28;20121;-93
2022/07/01 03:42:10;;;;;;;17.23;8.73;;;13.60;99.90;;;;;;5041187;28;20037;-90
2022/07/01 03:44:36;;;;;;;15.38;9.05;;;13.70;99.90;;;;;;5019875;28;20041;-90
2022/07/01 03:47:05;;;;;;;16.80;9.23;;;13.70;99.90;;;;;;5033048;28;20052;-92
2022/07/01 03:49:31;;;;;;;21.77;10.38;;;13.70;99.90;;;;;;5042729;28;20051;-92
2022/07/01 03:51:57;;;;;;;19.98;10.68;;;13.70;99.90;;;;;;5056736;28;20060;-90
2022/07/01 03:54:38;;;;;;;19.38;11.23;;;13.80;99.90;;;;;;5013569;28;20045;-91
2022/07/01 03:57:09;;;;;;;26.77;13.02;;;13.80;99.90;;;;;;5017575;28;20048;-92
2022/07/01 03:59:39;;;;;;;29.52;14.98;;;13.80;99.90;;;;;;5054620;28;20036;-92
2022/07/01 04:02:06;;;;;;;30.05;16.33;;;13.90;99.90;;;;;;5033962;28;20041;-94
2022/07/01 04:04:33;;;;;;;33.28;17.23;;;13.90;99.90;;;;;;5035695;28;20477;-92
2022/07/01 04:07:02;;;;;;;29.55;16.63;;;13.90;99.90;;;;;;5032322;28;20045;-92
2022/07/01 04:09:29;;;;;;;32.50;17.20;;;13.90;99.90;;;;;;5031932;28;20132;-93
2022/07/01 04:11:55;;;;;;;35.58;18.02;;;13.90;99.90;;;;;;5026452;28;20060;-87
2022/07/01 04:14:21;;;;;;;38.85;19.42;;;14.00;99.90;;;;;;5034284;28;20052;-93
2022/07/01 04:16:47;;;;;;;40.80;19.95;;;14.00;99.90;;;;;;5018382;28;20045;-93
2022/07/01 04:19:14;;;;;;;37.70;20.25;;;14.00;99.90;;;;;;5055639;28;20060;-95
2022/07/01 04:24:24;;;;;;;35.85;19.80;;;14.00;99.90;;;;;;5042286;28;20072;-90
2022/07/01 04:26:51;;;;;;;46.08;22.77;;;14.00;99.90;;;;;;5055151;28;20030;-91
2022/07/01 04:29:17;;;;;;;38.35;21.38;;;14.00;99.90;;;;;;5046502;28;20042;-93
2022/07/01 04:31:43;;;;;;;44.45;22.88;;;14.00;99.90;;;;;;5028415;28;20037;-93
2022/07/01 04:34:09;;;;;;;51.92;24.58;;;14.00;99.90;;;;;;5039987;28;20098;-92
2022/07/01 04:36:35;;;;;;;61.35;26.55;;;14.00;99.90;;;;;;5050132;28;20048;-91
2022/07/01 04:39:02;;;;;;;52.50;25.05;;;14.00;99.90;;;;;;5034855;28;20073;-92
2022/07/01 04:44:12;;;;;;;70.00;28.70;;;14.00;99.90;;;;;;5036463;28;20040;-91
2022/07/01 04:46:38;;;;;;;72.43;29.05;;;14.00;99.90;;;;;;5039450;28;20659;-91
2022/07/01 04:49:04;;;;;;;59.53;28.95;;;14.10;99.90;;;;;;5037129;28;20052;-91
2022/07/01 04:51:30;;;;;;;71.78;30.17;;;14.00;99.90;;;;;;5031155;28;20147;-91
2022/07/01 04:53:56;;;;;;;62.88;28.92;;;14.00;99.90;;;;;;5004606;28;20037;-87
2022/07/01 04:56:22;;;;;;;83.60;34.28;;;14.00;99.90;;;;;;5005936;28;20056;-87
2022/07/01 04:58:48;;;;;;;74.97;32.20;;;14.00;99.90;;;;;;5003810;28;20045;-92
2022/07/01 05:01:14;;;;;;;80.35;34.75;;;14.10;99.90;;;;;;5041288;28;20068;-90
2022/07/01 05:03:39;;;;;;;63.72;31.65;;;14.00;99.90;;;;;;5014300;28;20077;-90
2022/07/01 05:06:05;;;;;;;67.10;32.28;;;14.10;99.90;;;;;;5019901;28;20142;-93
2022/07/01 05:08:31;;;;;;;69.43;33.65;;;14.00;99.90;;;;;;5039872;28;20049;-86
2022/07/01 05:10:57;;;;;;;77.15;34.47;;;14.00;99.90;;;;;;5012296;28;20045;-87
2022/07/01 05:13:23;;;;;;;71.57;33.80;;;13.90;99.90;;;;;;5025197;28;20041;-86
2022/07/01 05:15:48;;;;;;;71.32;33.90;;;14.00;99.90;;;;;;5034920;28;20037;-86
2022/07/01 05:23:43;;;;;;;78.43;35.85;;;14.00;99.90;;;;;;5023235;28;20045;-90
2022/07/01 05:26:08;;;;;;;68.75;33.83;;;14.10;99.90;;;;;;5021413;28;20041;-88
2022/07/01 05:28:34;;;;;;;76.85;35.10;;;14.10;99.90;;;;;;5001999;28;20098;-90
2022/07/01 05:31:00;;;;;;;68.68;34.20;;;14.10;99.90;;;;;;5016056;28;20098;-88
2022/07/01 05:33:28;;;;;;;64.72;34.95;;;14.20;99.90;;;;;;5008572;28;20167;-88
2022/07/01 05:35:54;;;;;;;68.70;34.95;;;14.20;99.90;;;;;;5000523;28;20102;-89
2022/07/01 05:38:19;;;;;;;74.13;35.85;;;14.20;99.90;;;;;;5025064;28;20128;-87
2022/07/01 05:40:45;;;;;;;63.38;30.35;;;14.20;99.90;;;;;;5002634;28;20686;-87
2022/07/01 05:43:11;;;;;;;59.80;31.65;;;14.20;99.90;;;;;;5012620;28;20475;-89
2022/07/01 05:45:37;;;;;;;59.83;33.88;;;14.20;99.90;;;;;;5019246;28;20421;-90
2022/07/01 05:48:03;;;;;;;66.10;34.38;;;14.20;99.90;;;;;;5003084;28;20146;-89
2022/07/01 05:50:28;;;;;;;61.45;34.15;;;14.20;99.90;;;;;;5033450;28;20130;-90
2022/07/01 05:52:54;;;;;;;58.50;33.67;;;14.20;99.90;;;;;;5023227;28;20055;-89
2022/07/01 05:55:20;;;;;;;69.40;36.55;;;14.30;99.90;;;;;;5039919;28;20072;-90
2022/07/01 05:57:46;;;;;;;58.97;34.08;;;14.30;99.90;;;;;;5023355;28;20551;-91
2022/07/01 06:00:12;;;;;;;59.92;34.50;;;14.30;99.90;;;;;;5019721;28;20087;-91
2022/07/01 06:02:38;;;;;;;60.67;34.72;;;14.40;99.90;;;;;;5023681;28;20135;-92
2022/07/01 06:05:04;;;;;;;60.63;34.97;;;14.50;99.90;;;;;;5036648;28;20494;-93
2022/07/01 06:07:30;;;;;;;56.83;32.65;;;14.50;99.90;;;;;;5004835;28;20186;-92
2022/07/01 06:09:56;;;;;;;58.45;34.85;;;14.60;99.90;;;;;;5020598;28;20153;-92
2022/07/01 06:12:22;;;;;;;52.38;33.50;;;14.70;99.90;;;;;;5050116;28;20081;-91
2022/07/01 06:14:48;;;;;;;57.67;33.67;;;14.80;99.90;;;;;;5049076;28;20087;-89
2022/07/01 06:17:14;;;;;;;48.35;31.60;;;14.80;99.90;;;;;;5024162;28;20044;-90
2022/07/01 06:19:40;;;;;;;48.70;31.80;;;14.90;99.90;;;;;;5013801;28;20123;-92
2022/07/01 06:22:06;;;;;;;49.55;31.90;;;14.90;99.90;;;;;;5021538;28;20041;-94
2022/07/01 06:24:31;;;;;;;44.00;30.05;;;14.90;99.90;;;;;;5019195;28;20071;-94
2022/07/01 06:26:57;;;;;;;47.60;31.25;;;14.90;99.90;;;;;;5007653;28;20040;-94
2022/07/01 06:29:23;;;;;;;41.53;29.83;;;14.90;99.90;;;;;;5039672;28;20047;-95
2022/07/01 06:31:49;;;;;;;47.13;31.73;;;14.90;99.90;;;;;;5030775;28;20048;-91
2022/07/01 06:34:14;;;;;;;45.90;31.33;;;14.80;99.90;;;;;;5053696;28;20045;-93
2022/07/01 06:36:40;;;;;;;50.63;32.28;;;14.80;99.90;;;;;;5035743;28;20041;-93
2022/07/01 06:39:06;;;;;;;45.47;31.75;;;14.90;99.90;;;;;;5021034;28;20028;-93
2022/07/01 06:41:32;;;;;;;45.03;32.50;;;15.00;99.90;;;;;;5037590;28;20109;-92
2022/07/01 06:43:59;;;;;;;45.13;30.13;;;15.00;99.90;;;;;;5011677;28;20474;-92
2022/07/01 06:46:26;;;;;;;49.35;31.88;;;14.90;99.90;;;;;;5022278;28;20123;-90
2022/07/01 06:48:51;;;;;;;47.30;32.95;;;14.90;99.90;;;;;;5052980;28;20075;-91
2022/07/01 06:51:18;;;;;;;43.63;32.22;;;14.90;99.90;;;;;;5034316;28;20113;-91
2022/07/01 06:53:46;;;;;;;43.28;30.33;;;15.00;99.90;;;;;;5022625;28;20060;-90
2022/07/01 06:56:12;;;;;;;41.63;30.75;;;15.10;99.90;;;;;;5048190;28;20043;-91
2022/07/01 06:58:39;;;;;;;41.22;29.88;;;14.90;99.90;;;;;;5030168;28;20048;-90
2022/07/01 07:01:04;;;;;;;46.17;32.30;;;14.90;99.90;;;;;;5023243;28;20044;-89
2022/07/01 07:03:32;;;;;;;45.88;31.63;;;14.90;99.90;;;;;;5029901;28;20040;-90
2022/07/01 07:06:02;;;;;;;45.78;31.70;;;15.00;99.90;;;;;;5046170;28;20438;-90
2022/07/01 07:08:29;;;;;;;43.35;31.80;;;15.10;99.90;;;;;;5038232;28;20044;-89
2022/07/01 07:10:54;;;;;;;37.25;29.88;;;15.10;99.90;;;;;;5029160;28;20083;-90
2022/07/01 07:13:20;;;;;;;38.53;29.17;;;15.00;99.90;;;;;;5022464;28;20084;-90
2022/07/01 07:15:46;;;;;;;38.38;30.02;;;14.90;99.90;;;;;;5030862;28;20427;-90
2022/07/01 07:18:11;;;;;;;38.40;30.58;;;15.00;99.90;;;;;;5045037;28;20115;-92
2022/07/01 07:20:37;;;;;;;40.88;31.55;;;15.00;99.90;;;;;;5035332;28;20044;-91
2022/07/01 07:23:03;;;;;;;39.05;31.23;;;15.20;99.90;;;;;;5054383;28;20044;-89
2022/07/01 07:25:29;;;;;;;38.72;29.23;;;15.20;99.90;;;;;;5059293;28;20056;-90
2022/07/01 07:27:54;;;;;;;40.33;29.98;;;15.20;99.90;;;;;;5034200;28;20123;-89
2022/07/01 07:30:20;;;;;;;39.88;30.00;;;15.10;99.90;;;;;;5005835;28;20041;-90
2022/07/01 07:32:47;;;;;;;36.35;29.75;;;15.20;99.90;;;;;;5038401;28;20440;-89
2022/07/01 07:35:13;;;;;;;40.03;30.48;;;15.20;99.90;;;;;;5055162;28;20433;-89
2022/07/01 07:37:39;;;;;;;38.22;29.98;;;15.20;99.90;;;;;;5052789;28;20071;-89
2022/07/01 07:40:09;;;;;;;37.15;29.20;;;15.20;99.90;;;;;;5038142;28;20079;-90
2022/07/01 07:42:36;;;;;;;39.85;28.80;;;15.30;99.90;;;;;;5033901;28;20416;-91
2022/07/01 07:45:03;;;;;;;37.08;27.65;;;15.30;99.90;;;;;;5035066;28;20079;-90
2022/07/01 07:47:28;;;;;;;31.73;27.13;;;15.40;99.90;;;;;;5045648;28;20037;-90
2022/07/01 07:49:54;;;;;;;34.28;27.85;;;15.50;99.90;;;;;;5034568;28;20052;-89
2022/07/01 07:52:20;;;;;;;32.88;26.52;;;15.80;99.90;;;;;;5037660;28;20052;-89
2022/07/01 07:54:46;;;;;;;31.67;25.70;;;16.20;99.90;;;;;;5017179;28;20199;-88
2022/07/01 07:57:11;;;;;;;28.83;25.70;;;16.30;99.90;;;;;;5047147;28;20036;-88
2022/07/01 07:59:37;;;;;;;27.25;23.48;;;16.20;99.90;;;;;;5037754;28;20055;-89
2022/07/01 08:02:03;;;;;;;32.78;22.17;;;16.10;99.90;;;;;;5037455;28;20072;-89
2022/07/01 08:04:29;;;;;;;29.77;23.73;;;16.10;99.90;;;;;;5024151;28;20036;-85
2022/07/01 08:06:55;;;;;;;26.45;23.05;;;16.10;99.90;;;;;;5052116;28;20040;-88
2022/07/01 08:09:20;;;;;;;27.90;23.92;;;16.10;99.90;;;;;;5024983;28;20052;-91
2022/07/01 08:11:46;;;;;;;30.17;23.67;;;16.10;99.90;;;;;;5039093;28;20048;-90
2022/07/01 08:14:12;;;;;;;25.05;22.23;;;16.20;99.90;;;;;;5032293;28;20037;-89
2022/07/01 08:16:37;;;;;;;27.15;23.38;;;16.20;99.90;;;;;;5018532;28;20497;-88
2022/07/01 08:19:03;;;;;;;25.90;21.33;;;16.40;99.90;;;;;;5037882;28;20128;-89
2022/07/01 08:21:32;;;;;;;26.15;21.17;;;16.80;99.90;;;;;;5030993;28;20473;-89
2022/07/01 08:23:58;;;;;;;23.92;18.85;;;17.00;99.90;;;;;;5048852;28;20029;-91
2022/07/01 08:26:23;;;;;;;34.03;20.95;;;16.90;99.90;;;;;;5036758;28;20044;-90
2022/07/01 08:28:49;;;;;;;20.80;18.50;;;17.10;99.90;;;;;;5000964;28;20049;-91
2022/07/01 08:31:15;;;;;;;22.80;18.90;;;17.00;99.90;;;;;;5038016;28;20041;-91
2022/07/01 08:33:41;;;;;;;21.10;18.08;;;17.50;99.90;;;;;;5027389;28;20048;-89
2022/07/01 08:36:08;;;;;;;18.35;16.38;;;17.70;99.90;;;;;;5036735;28;20078;-90
2022/07/01 08:38:34;;;;;;;18.75;15.25;;;17.60;99.90;;;;;;5037154;28;20086;-89
2022/07/01 08:41:01;;;;;;;18.77;16.02;;;17.70;99.90;;;;;;5018678;28;20432;-91
2022/07/01 08:43:27;;;;;;;20.08;14.68;;;17.80;99.90;;;;;;5022752;28;20068;-91
2022/07/01 08:45:53;;;;;;;18.08;14.43;;;17.60;99.90;;;;;;5035925;28;20063;-90
2022/07/01 08:48:19;;;;;;;17.85;13.80;;;17.40;99.90;;;;;;5037815;28;20056;-91
2022/07/01 08:50:45;;;;;;;19.17;15.18;;;17.50;99.90;;;;;;5029351;28;20052;-91
2022/07/01 08:53:12;;;;;;;18.08;13.25;;;17.70;99.90;;;;;;5028000;28;20050;-92
2022/07/01 08:58:28;;;;;;;19.63;13.35;;;17.70;99.90;;;;;;5029645;28;20053;-91
2022/07/01 09:01:10;;;;;;;17.85;13.00;;;17.60;99.90;;;;;;5022525;28;20041;-91
2022/07/01 09:03:36;;;;;;;15.95;12.55;;;17.90;99.90;;;;;;5043873;28;20388;-93
2022/07/01 09:06:02;;;;;;;16.13;12.32;;;18.10;99.90;;;;;;5002111;28;20052;-91
2022/07/01 09:08:28;;;;;;;18.35;12.20;;;18.60;99.90;;;;;;5031200;28;20467;-90
2022/07/01 09:10:54;;;;;;;14.52;10.98;;;18.80;99.90;;;;;;5024856;28;20041;-91
2022/07/01 09:13:20;;;;;;;14.18;11.18;;;19.40;99.90;;;;;;5031045;28;20041;-91
2022/07/01 09:15:45;;;;;;;17.23;13.55;;;19.70;99.90;;;;;;5017995;28;20041;-92
2022/07/01 09:18:13;;;;;;;18.00;12.48;;;19.40;99.90;;;;;;5015183;28;20050;-91
2022/07/01 09:20:41;;;;;;;15.40;11.93;;;19.40;99.90;;;;;;5040321;28;20077;-92
2022/07/01 09:23:10;;;;;;;15.25;11.27;;;19.70;99.90;;;;;;5047678;28;20033;-91
2022/07/01 09:25:45;;;;;;;12.68;11.38;;;20.00;99.90;;;;;;5026081;28;20099;-93
2022/07/01 09:28:16;;;;;;;12.75;10.57;;;20.60;99.90;;;;;;5050847;28;20124;-90
2022/07/01 09:30:44;;;;;;;14.25;10.70;;;21.10;99.90;;;;;;5020773;28;20121;-91
2022/07/01 09:33:17;;;;;;;15.18;11.50;;;20.40;99.90;;;;;;5033210;28;20052;-91
2022/07/01 09:35:44;;;;;;;15.82;11.00;;;19.70;99.90;;;;;;5037287;28;20083;-91
2022/07/01 09:38:15;;;;;;;14.82;9.68;;;19.10;99.90;;;;;;5048149;28;20492;-91
2022/07/01 09:40:55;;;;;;;11.15;8.43;;;19.00;99.90;;;;;;5050314;28;20498;-89
2022/07/01 09:43:26;;;;;;;12.00;9.98;;;19.10;99.90;;;;;;5021633;28;20067;-90
2022/07/01 09:46:03;;;;;;;13.02;9.18;;;19.10;99.90;;;;;;5028036;28;20049;-91
2022/07/01 09:48:32;;;;;;;13.48;8.50;;;18.90;99.90;;;;;;5037655;28;20474;-90
2022/07/01 09:50:58;;;;;;;13.63;9.02;;;19.20;99.90;;;;;;5056025;28;20084;-91
2022/07/01 09:53:24;;;;;;;12.98;8.57;;;19.30;99.90;;;;;;5029242;28;20080;-92
2022/07/01 09:55:50;;;;;;;12.00;8.65;;;19.40;99.90;;;;;;5042462;28;20084;-90
2022/07/01 09:58:16;;;;;;;14.48;9.07;;;19.50;99.90;;;;;;5029420;28;20071;-88
2022/07/01 10:00:42;;;;;;;17.63;9.55;;;19.20;99.90;;;;;;5022010;28;20032;-92
2022/07/01 10:03:08;;;;;;;9.45;7.57;;;19.10;99.90;;;;;;5028370;28;20094;-91
2022/07/01 10:05:50;;;;;;;14.75;8.10;;;19.00;99.90;;;;;;5023989;28;20050;-92
2022/07/01 10:08:19;;;;;;;11.23;7.68;;;19.10;99.90;;;;;;5057060;28;20759;-91
2022/07/01 10:10:52;;;;;;;12.18;8.05;;;19.30;99.90;;;;;;5039856;28;20404;-91
2022/07/01 10:13:24;;;;;;;10.23;7.38;;;20.70;99.90;;;;;;5052151;28;20036;-91
2022/07/01 10:15:50;;;;;;;10.13;8.10;;;22.30;99.90;;;;;;5027578;28;20033;-91
2022/07/01 10:18:26;;;;;;;10.27;7.43;;;22.50;99.90;;;;;;5046403;28;20079;-90
2022/07/01 10:20:55;;;;;;;8.90;6.75;;;22.10;99.90;;;;;;5014649;28;20478;-89
2022/07/01 10:23:23;;;;;;;8.93;5.53;;;21.30;99.90;;;;;;5039107;28;20059;-87
2022/07/01 10:25:53;;;;;;;11.32;6.53;;;21.40;99.90;;;;;;5057217;28;20121;-87
2022/07/01 10:28:19;;;;;;;9.55;6.00;;;21.50;99.90;;;;;;5021205;28;20053;-89
2022/07/01 10:34:48;;;;;;;10.52;5.93;;;22.80;99.90;;;;;;5046217;28;20387;-89
2022/07/01 10:37:17;;;;;;;7.55;3.80;;;23.80;99.90;;;;;;5044036;28;20064;-89
2022/07/01 10:40:03;;;;;;;6.95;4.15;;;23.50;99.90;;;;;;5044174;28;20115;-90
2022/07/01 10:42:59;;;;;;;7.47;4.07;;;22.80;99.90;;;;;;5032439;28;20041;-89
2022/07/01 10:45:24;;;;;;;5.25;3.40;;;22.50;99.90;;;;;;5033352;28;20093;-89
2022/07/01 10:48:19;;;;;;;6.50;3.83;;;22.60;99.90;;;;;;5040841;28;20040;-89
2022/07/01 10:50:47;;;;;;;7.70;3.83;;;22.80;99.90;;;;;;5051777;28;20049;-92
2022/07/01 10:53:13;;;;;;;6.95;4.00;;;23.70;99.90;;;;;;5016240;28;20140;-90
2022/07/01 10:55:51;;;;;;;5.50;3.63;;;24.20;99.90;;;;;;5035668;28;20045;-90
2022/07/01 10:58:18;;;;;;;6.78;3.60;;;23.40;99.90;;;;;;5058413;28;20032;-90
2022/07/01 11:00:46;;;;;;;8.77;3.88;;;23.10;99.90;;;;;;5035364;28;20044;-90
2022/07/01 11:03:21;;;;;;;6.13;3.60;;;22.90;99.90;;;;;;5042422;28;20491;-90
2022/07/01 11:05:50;;;;;;;7.15;3.45;;;22.20;99.90;;;;;;5065880;28;20119;-91
2022/07/01 11:08:16;;;;;;;7.25;3.72;;;22.70;99.90;;;;;;5052124;28;20075;-89
2022/07/01 11:10:42;;;;;;;9.70;3.97;;;24.10;99.90;;;;;;5033734;28;20116;-90
2022/07/01 11:13:11;;;;;;;7.82;3.38;;;24.80;99.90;;;;;;5010705;28;20178;-89
2022/07/01 11:15:38;;;;;;;6.00;3.22;;;24.80;99.90;;;;;;5006262;28;20037;-90
2022/07/01 11:18:04;;;;;;;5.68;2.80;;;25.00;99.90;;;;;;5035130;28;20378;-89
2022/07/01 11:20:31;;;;;;;6.50;2.75;;;25.60;99.90;;;;;;5018959;28;20084;-87
2022/07/01 11:22:57;;;;;;;4.20;2.65;;;26.40;99.90;;;;;;5033497;28;20033;-87
2022/07/01 11:25:23;;;;;;;5.25;2.20;;;26.90;99.90;;;;;;5043165;28;20041;-87
2022/07/01 11:27:51;;;;;;;6.22;2.50;;;27.10;94.40;;;;;;5045600;28;20390;-92
2022/07/01 11:30:19;;;;;;;3.42;2.60;;;26.90;99.90;;;;;;5041084;28;20037;-89
2022/07/01 11:32:50;;;;;;;5.47;2.65;;;26.40;34.50;;;;;;5030916;28;20139;-86
2022/07/01 11:41:03;;;;;;;6.50;2.78;;;25.80;77.10;;;;;;5047729;28;20063;-88
2022/07/01 11:43:33;;;;;;;5.97;2.03;;;25.40;1.00;;;;;;5029519;28;20558;-88
2022/07/01 11:46:01;;;;;;;3.35;1.85;;;26.00;99.90;;;;;;5035276;28;20048;-85
2022/07/01 11:48:38;;;;;;;6.32;2.28;;;26.50;66.40;;;;;;5035907;28;20048;-85
2022/07/01 11:51:12;;;;;;;5.78;1.92;;;26.40;99.90;;;;;;5048844;28;20734;-88
2022/07/01 11:53:44;;;;;;;4.50;1.33;;;25.80;99.90;;;;;;5029564;28;20056;-88
2022/07/01 11:56:11;;;;;;;5.40;1.23;;;26.00;99.90;;;;;;5041410;28;20044;-89
2022/07/01 11:58:46;;;;;;;3.92;1.30;;;25.30;36.90;;;;;;5018047;28;20354;-89
2022/07/01 12:01:26;;;;;;;3.55;1.50;;;23.60;1.00;;;;;;5045897;28;20040;-87
2022/07/01 12:03:52;;;;;;;3.65;1.20;;;22.50;1.00;;;;;;5036455;28;20562;-86
2022/07/01 12:06:19;;;;;;;4.70;1.08;;;21.80;91.10;;;;;;5004581;28;20040;-88
2022/07/01 12:08:46;;;;;;;4.90;1.40;;;21.20;91.00;;;;;;5037304;28;20044;-87
2022/07/01 12:11:12;;;;;;;6.22;1.40;;;20.80;1.00;;;;;;5020615;28;20029;-87
2022/07/01 12:13:38;;;;;;;6.15;1.20;;;21.00;36.00;;;;;;5017493;28;20590;-88
2022/07/01 12:16:08;;;;;;;4.65;1.00;;;22.50;79.10;;;;;;5022456;28;20478;-87
2022/07/01 12:18:34;;;;;;;3.28;0.95;;;24.20;97.00;;;;;;5034346;28;20048;-89
2022/07/01 12:21:00;;;;;;;4.35;0.80;;;25.20;1.00;;;;;;5043980;28;20071;-88
2022/07/01 12:23:26;;;;;;;6.97;1.10;;;25.10;1.00;;;;;;5018290;28;20431;-88
2022/07/01 12:25:52;;;;;;;2.28;0.88;;;25.50;1.00;;;;;;5054022;28;20040;-87
2022/07/01 12:28:30;;;;;;;2.28;0.60;;;24.90;1.00;;;;;;5031559;28;20040;-86
2022/07/01 12:31:22;;;;;;;5.50;0.80;;;24.20;99.90;;;;;;5034858;28;20041;-86
2022/07/01 12:33:52;;;;;;;5.03;0.70;;;23.10;99.90;;;;;;5017216;28;20064;-87
2022/07/01 12:36:18;;;;;;;4.75;0.82;;;22.50;99.90;;;;;;5020916;28;20144;-86
2022/07/01 12:38:44;;;;;;;3.38;1.02;;;21.60;18.30;;;;;;5037550;28;20123;-87
2022/07/01 12:41:34;;;;;;;4.97;1.35;;;21.20;42.10;;;;;;5031456;28;20041;-88
2022/07/01 12:44:21;;;;;;;4.10;0.90;;;21.20;99.10;;;;;;5058916;28;20481;-92
2022/07/01 12:46:47;;;;;;;4.90;1.02;;;22.20;25.80;;;;;;5029247;28;20102;-88
2022/07/01 12:49:23;;;;;;;2.08;0.50;;;24.10;30.70;;;;;;5020012;28;20466;-87
2022/07/01 12:51:50;;;;;;;2.28;0.73;;;25.10;99.90;;;;;;5030797;28;20040;-88
2022/07/01 12:54:33;;;;;;;4.57;0.77;;;25.20;1.00;;;;;;5043617;28;20052;-87
2022/07/01 12:57:00;;;;;;;3.35;0.90;;;25.30;1.00;;;;;;5033785;28;20044;-88
2022/07/01 12:59:26;;;;;;;3.03;0.65;;;25.20;1.00;;;;;;5036346;28;20471;-87
2022/07/01 13:01:53;;;;;;;3.28;0.50;;;25.60;1.00;;;;;;5054104;28;20473;-87